Time;durP1;ratioP1;P1;durP2;ratioP2;P2;SDS_P1;SDS_P2;PMS_P1;PMS_P2;Temp;Humidity;BMP_temperature;BMP_pressure;BME280_temperature;BME280_humidity;BME280_pressure;Samples;Min_cycle;Max_cycle;Signal;HPM_P1;HPM_P2
2022/07/16 00:02:48;;;;;;;1.67;1.57;;;;;;;;;;5093789;28;20312;-52
2022/07/16 00:05:14;;;;;;;1.40;1.03;;;;;;;;;;5093681;28;20638;-52
2022/07/16 00:07:40;;;;;;;2.23;1.30;;;;;;;;;;5093750;28;20202;-52
2022/07/16 00:10:06;;;;;;;1.30;1.03;;;;;;;;;;5093529;28;20665;-52
2022/07/16 00:12:32;;;;;;;1.70;1.30;;;;;;;;;;5093654;28;20675;-52
2022/07/16 00:14:58;;;;;;;1.40;1.30;;;;;;;;;;5093485;28;20298;-52
2022/07/16 00:17:26;;;;;;;1.27;1.17;;;;;;;;;;5093563;28;20269;-52
2022/07/16 00:19:52;;;;;;;1.30;1.10;;;;;;;;;;5093338;28;20203;-53
2022/07/16 00:22:18;;;;;;;2.73;1.47;;;;;;;;;;5093169;28;20231;-53
2022/07/16 00:24:44;;;;;;;4.03;1.50;;;;;;;;;;5093046;28;20282;-52
2022/07/16 00:27:10;;;;;;;3.27;1.70;;;;;;;;;;5093111;28;20284;-53
2022/07/16 00:29:36;;;;;;;5.37;4.87;;;;;;;;;;5093316;28;20248;-54
2022/07/16 00:32:02;;;;;;;3.77;2.00;;;;;;;;;;5093135;28;20199;-54
2022/07/16 00:34:29;;;;;;;4.40;1.70;;;;;;;;;;5093268;28;20195;-53
2022/07/16 00:36:55;;;;;;;3.20;1.60;;;;;;;;;;5092789;28;20191;-53
2022/07/16 00:39:21;;;;;;;2.77;1.73;;;;;;;;;;5093234;28;20203;-53
2022/07/16 00:41:48;;;;;;;3.43;1.70;;;;;;;;;;5093067;28;20199;-53
2022/07/16 00:44:15;;;;;;;4.20;1.77;;;;;;;;;;5092707;28;20278;-53
2022/07/16 00:46:42;;;;;;;3.60;1.70;;;;;;;;;;5092608;28;20203;-52
2022/07/16 00:49:08;;;;;;;3.10;1.80;;;;;;;;;;5092942;28;20293;-51
2022/07/16 00:51:36;;;;;;;4.53;2.00;;;;;;;;;;5092694;28;20578;-52
2022/07/16 00:54:03;;;;;;;2.43;1.57;;;;;;;;;;5092711;28;20286;-52
2022/07/16 00:57:47;;;;;;;2.43;1.53;;;;;;;;;;5092743;28;20289;-53
2022/07/16 00:59:48;;;;;;;4.10;3.60;;;;;;;;;;5022507;28;20229;-52
2022/07/16 01:02:14;;;;;;;2.63;1.90;;;;;;;;;;5030040;28;20205;-54
2022/07/16 01:04:40;;;;;;;3.13;1.80;;;;;;;;;;5066111;28;20203;-54
2022/07/16 01:07:08;;;;;;;2.70;1.60;;;;;;;;;;5092368;28;20763;-53
2022/07/16 01:09:35;;;;;;;2.47;1.70;;;;;;;;;;5092117;28;20201;-54
2022/07/16 01:12:01;;;;;;;3.67;1.83;;;;;;;;;;5092513;28;20198;-54
2022/07/16 01:14:27;;;;;;;5.03;1.73;;;;;;;;;;5092627;28;20190;-54
2022/07/16 01:16:53;;;;;;;4.67;1.60;;;;;;;;;;5092414;28;20205;-54
2022/07/16 01:19:19;;;;;;;3.20;1.80;;;;;;;;;;5092470;28;20230;-53
2022/07/16 01:21:45;;;;;;;3.70;1.60;;;;;;;;;;5092302;28;20235;-54
2022/07/16 01:24:12;;;;;;;2.03;1.60;;;;;;;;;;5092451;28;20194;-53
2022/07/16 01:26:38;;;;;;;2.60;1.70;;;;;;;;;;5092467;28;20283;-53
2022/07/16 01:32:08;;;;;;;5.70;1.93;;;;;;;;;;5092184;28;20181;-53
2022/07/16 01:34:34;;;;;;;2.13;1.60;;;;;;;;;;5092229;28;20203;-52
2022/07/16 01:37:01;;;;;;;2.63;1.70;;;;;;;;;;5092247;28;20199;-52
2022/07/16 01:39:29;;;;;;;2.43;1.93;;;;;;;;;;5092238;28;20199;-53
2022/07/16 01:41:56;;;;;;;4.33;1.80;;;;;;;;;;5092127;28;20213;-54
2022/07/16 01:44:24;;;;;;;4.07;1.70;;;;;;;;;;5092238;28;20233;-53
2022/07/16 01:46:50;;;;;;;4.47;1.70;;;;;;;;;;5091991;28;20241;-52
2022/07/16 01:49:16;;;;;;;2.90;1.93;;;;;;;;;;5092285;28;20195;-53
2022/07/16 01:51:42;;;;;;;3.97;1.80;;;;;;;;;;5092079;28;20194;-53
2022/07/16 01:54:08;;;;;;;2.93;1.80;;;;;;;;;;5091976;28;20199;-52
2022/07/16 01:56:36;;;;;;;2.40;1.50;;;;;;;;;;5092079;28;20183;-52
2022/07/16 01:59:02;;;;;;;2.00;1.70;;;;;;;;;;5092094;28;20203;-52
2022/07/16 02:01:28;;;;;;;2.13;1.93;;;;;;;;;;5091933;28;20202;-53
2022/07/16 02:03:54;;;;;;;3.40;2.00;;;;;;;;;;5091890;28;20203;-53
2022/07/16 02:06:20;;;;;;;2.73;2.37;;;;;;;;;;5091980;28;20250;-51
2022/07/16 02:08:46;;;;;;;3.50;2.07;;;;;;;;;;5091937;28;20198;-54
2022/07/16 02:11:12;;;;;;;3.47;1.97;;;;;;;;;;5091931;28;20198;-52
2022/07/16 02:13:40;;;;;;;5.43;1.77;;;;;;;;;;5091588;28;20676;-54
2022/07/16 02:16:06;;;;;;;4.57;1.77;;;;;;;;;;5091931;28;20201;-53
2022/07/16 02:18:32;;;;;;;2.47;1.77;;;;;;;;;;5091840;28;20286;-53
2022/07/16 02:20:58;;;;;;;2.37;1.80;;;;;;;;;;5091709;28;20322;-53
2022/07/16 02:23:24;;;;;;;2.07;1.70;;;;;;;;;;5094845;28;20203;-53
2022/07/16 02:25:50;;;;;;;3.20;1.70;;;;;;;;;;5095458;28;20207;-53
2022/07/16 02:28:16;;;;;;;2.67;1.77;;;;;;;;;;5095634;28;20571;-53
2022/07/16 02:30:44;;;;;;;1.97;1.50;;;;;;;;;;5095600;28;20195;-53
2022/07/16 02:33:12;;;;;;;4.33;1.97;;;;;;;;;;5095710;28;20199;-53
2022/07/16 02:35:38;;;;;;;5.07;2.47;;;;;;;;;;5095375;28;20203;-54
2022/07/16 02:38:05;;;;;;;5.03;2.50;;;;;;;;;;5095470;28;20244;-54
2022/07/16 02:40:33;;;;;;;5.23;2.07;;;;;;;;;;5095203;28;20194;-54
2022/07/16 02:42:59;;;;;;;3.33;1.80;;;;;;;;;;5095449;28;20614;-53
2022/07/16 02:45:25;;;;;;;2.47;1.90;;;;;;;;;;5095180;28;20735;-53
2022/07/16 02:47:52;;;;;;;3.70;2.00;;;;;;;;;;5094626;28;20684;-53
2022/07/16 02:50:19;;;;;;;3.30;1.90;;;;;;;;;;5095270;28;20229;-53
2022/07/16 02:52:45;;;;;;;3.93;2.07;;;;;;;;;;5095152;28;20261;-54
2022/07/16 02:55:11;;;;;;;3.83;2.00;;;;;;;;;;5095056;28;20664;-53
2022/07/16 02:57:37;;;;;;;3.00;1.80;;;;;;;;;;5095032;28;20195;-55
2022/07/16 03:00:04;;;;;;;4.87;1.87;;;;;;;;;;5094995;28;20240;-53
2022/07/16 03:02:30;;;;;;;2.10;1.90;;;;;;;;;;5094901;28;20209;-52
2022/07/16 03:04:57;;;;;;;2.20;2.00;;;;;;;;;;5094859;28;20286;-53
2022/07/16 03:07:23;;;;;;;2.27;1.90;;;;;;;;;;5094843;28;20267;-53
2022/07/16 03:09:49;;;;;;;1.77;1.67;;;;;;;;;;5094810;28;20728;-53
2022/07/16 03:12:15;;;;;;;2.50;1.93;;;;;;;;;;5094796;28;20203;-54
2022/07/16 03:14:41;;;;;;;2.00;1.80;;;;;;;;;;5094719;28;20197;-54
2022/07/16 03:17:07;;;;;;;2.70;1.87;;;;;;;;;;5094401;28;20282;-54
2022/07/16 03:19:33;;;;;;;2.30;1.80;;;;;;;;;;5094471;28;20222;-54
2022/07/16 03:22:00;;;;;;;3.17;2.10;;;;;;;;;;5094275;28;20681;-54
2022/07/16 03:24:28;;;;;;;2.37;1.83;;;;;;;;;;5094651;28;20218;-54
2022/07/16 03:26:54;;;;;;;2.83;1.80;;;;;;;;;;5094341;28;20316;-55
2022/07/16 03:29:20;;;;;;;3.67;2.07;;;;;;;;;;5094778;28;20216;-54
2022/07/16 03:31:46;;;;;;;2.57;1.97;;;;;;;;;;5094315;28;20620;-54
2022/07/16 03:34:12;;;;;;;3.97;2.20;;;;;;;;;;5094033;28;20191;-54
2022/07/16 03:36:38;;;;;;;3.80;2.57;;;;;;;;;;5094242;28;20718;-54
2022/07/16 03:39:05;;;;;;;2.33;2.10;;;;;;;;;;5094441;28;20248;-54
2022/07/16 03:41:31;;;;;;;3.60;2.53;;;;;;;;;;5094074;28;20199;-56
2022/07/16 03:43:57;;;;;;;2.80;2.00;;;;;;;;;;5093956;28;20191;-54
2022/07/16 03:46:23;;;;;;;2.27;2.00;;;;;;;;;;5093967;28;20233;-55
2022/07/16 03:48:49;;;;;;;3.83;2.80;;;;;;;;;;5094063;28;20206;-55
2022/07/16 03:51:15;;;;;;;3.90;2.30;;;;;;;;;;5094150;28;20248;-54
2022/07/16 03:53:41;;;;;;;4.13;2.17;;;;;;;;;;5093877;28;20248;-53
2022/07/16 03:56:09;;;;;;;2.40;2.20;;;;;;;;;;5094026;28;20226;-53
2022/07/16 03:58:36;;;;;;;3.03;2.60;;;;;;;;;;5093924;28;20207;-53
2022/07/16 04:01:02;;;;;;;2.87;2.30;;;;;;;;;;5093643;28;20219;-54
2022/07/16 04:03:28;;;;;;;2.50;2.30;;;;;;;;;;5093935;28;20351;-54
2022/07/16 04:05:54;;;;;;;3.10;2.90;;;;;;;;;;5093642;28;20226;-54
2022/07/16 04:08:20;;;;;;;3.60;3.00;;;;;;;;;;5093776;28;20699;-54
2022/07/16 04:10:46;;;;;;;4.17;3.00;;;;;;;;;;5093568;28;20217;-54
2022/07/16 04:13:13;;;;;;;4.00;3.10;;;;;;;;;;5093663;28;20205;-53
2022/07/16 04:15:39;;;;;;;3.97;2.90;;;;;;;;;;5093399;28;20222;-54
2022/07/16 04:18:06;;;;;;;3.13;2.83;;;;;;;;;;5093575;28;20197;-55
2022/07/16 04:20:32;;;;;;;2.90;2.50;;;;;;;;;;5093348;28;20705;-54
2022/07/16 04:22:58;;;;;;;5.60;3.40;;;;;;;;;;5093406;28;20252;-53
2022/07/16 04:25:24;;;;;;;4.80;2.93;;;;;;;;;;5093396;28;20253;-53
2022/07/16 04:27:50;;;;;;;7.63;4.00;;;;;;;;;;5093157;28;20321;-54
2022/07/16 04:30:18;;;;;;;4.03;3.63;;;;;;;;;;5093236;28;20294;-53
2022/07/16 04:32:44;;;;;;;3.80;3.20;;;;;;;;;;5093236;28;20202;-53
2022/07/16 04:35:11;;;;;;;4.50;3.40;;;;;;;;;;5093256;28;20295;-54
2022/07/16 04:37:37;;;;;;;4.17;2.87;;;;;;;;;;5093123;28;20282;-54
2022/07/16 04:40:04;;;;;;;5.50;3.50;;;;;;;;;;5093076;28;20289;-54
2022/07/16 04:42:31;;;;;;;3.60;3.30;;;;;;;;;;5092930;28;20671;-54
2022/07/16 04:44:57;;;;;;;4.03;3.40;;;;;;;;;;5092193;28;20199;-55
2022/07/16 04:47:24;;;;;;;5.03;3.27;;;;;;;;;;5092804;28;20555;-55
2022/07/16 04:49:50;;;;;;;3.50;3.20;;;;;;;;;;5092705;28;20202;-55
2022/07/16 04:52:16;;;;;;;3.40;3.10;;;;;;;;;;5092832;28;20199;-55
2022/07/16 04:54:42;;;;;;;3.93;3.37;;;;;;;;;;5092772;28;20191;-55
2022/07/16 04:57:08;;;;;;;3.90;3.00;;;;;;;;;;5092389;28;20195;-55
2022/07/16 04:59:34;;;;;;;4.27;3.27;;;;;;;;;;5092729;28;20305;-53
2022/07/16 05:04:46;;;;;;;3.37;2.97;;;;;;;;;;5092659;28;20232;-54
2022/07/16 05:07:12;;;;;;;3.77;3.03;;;;;;;;;;5092704;28;20229;-54
2022/07/16 05:09:38;;;;;;;3.80;3.20;;;;;;;;;;5092526;28;20199;-55
2022/07/16 05:12:04;;;;;;;4.20;3.20;;;;;;;;;;5092640;28;20213;-55
2022/07/16 05:14:30;;;;;;;3.27;3.00;;;;;;;;;;5092580;28;20289;-57
2022/07/16 05:16:56;;;;;;;3.27;2.60;;;;;;;;;;5092467;28;20282;-55
2022/07/16 05:19:22;;;;;;;4.00;3.20;;;;;;;;;;5092511;28;20202;-54
2022/07/16 05:21:49;;;;;;;3.77;2.70;;;;;;;;;;5092338;28;20234;-55
2022/07/16 05:24:15;;;;;;;3.20;2.60;;;;;;;;;;5092570;28;20260;-55
2022/07/16 05:26:41;;;;;;;4.57;3.03;;;;;;;;;;5092282;28;20226;-55
2022/07/16 05:29:08;;;;;;;3.00;2.70;;;;;;;;;;5092411;28;20221;-55
2022/07/16 05:31:33;;;;;;;4.27;2.70;;;;;;;;;;5092257;28;20222;-55
2022/07/16 05:33:59;;;;;;;3.40;2.77;;;;;;;;;;5092276;28;20610;-55
2022/07/16 05:36:25;;;;;;;3.97;2.73;;;;;;;;;;5092402;28;20198;-55
2022/07/16 05:38:53;;;;;;;3.27;2.83;;;;;;;;;;5092230;28;20218;-55
2022/07/16 05:41:19;;;;;;;3.53;2.63;;;;;;;;;;5092402;28;20207;-55
2022/07/16 05:43:45;;;;;;;3.30;3.00;;;;;;;;;;5092191;28;20190;-55
2022/07/16 05:46:11;;;;;;;3.50;2.70;;;;;;;;;;5091997;28;20280;-56
2022/07/16 05:48:37;;;;;;;4.03;3.00;;;;;;;;;;5092047;28;20202;-56
2022/07/16 05:51:03;;;;;;;3.57;2.73;;;;;;;;;;5092260;28;20664;-55
2022/07/16 05:53:29;;;;;;;2.57;2.37;;;;;;;;;;5092161;28;20237;-55
2022/07/16 05:55:56;;;;;;;4.33;2.77;;;;;;;;;;5092640;28;20222;-54
2022/07/16 05:58:22;;;;;;;3.47;2.47;;;;;;;;;;5096103;28;20260;-54
2022/07/16 06:00:48;;;;;;;4.23;2.50;;;;;;;;;;5096020;28;20226;-55
2022/07/16 06:03:14;;;;;;;6.30;2.60;;;;;;;;;;5096235;28;20198;-54
2022/07/16 06:05:40;;;;;;;3.83;2.43;;;;;;;;;;5095642;28;20680;-55
2022/07/16 06:08:06;;;;;;;2.97;2.50;;;;;;;;;;5095890;28;20210;-55
2022/07/16 06:10:32;;;;;;;3.27;2.87;;;;;;;;;;5096066;28;20199;-55
2022/07/16 06:12:59;;;;;;;3.93;2.33;;;;;;;;;;5095819;28;20565;-55
2022/07/16 06:15:25;;;;;;;3.63;2.17;;;;;;;;;;5095377;28;20203;-53
2022/07/16 06:17:51;;;;;;;3.00;2.33;;;;;;;;;;5095433;28;20191;-54
2022/07/16 06:20:17;;;;;;;3.87;2.30;;;;;;;;;;5095755;28;20616;-54
2022/07/16 06:22:43;;;;;;;4.47;2.40;;;;;;;;;;5095548;28;20320;-54
2022/07/16 06:25:09;;;;;;;3.63;2.20;;;;;;;;;;5095784;28;20252;-56
2022/07/16 06:27:35;;;;;;;5.00;2.27;;;;;;;;;;5095607;28;20231;-54
2022/07/16 06:30:03;;;;;;;2.97;1.70;;;;;;;;;;5095554;28;20202;-54
2022/07/16 06:32:29;;;;;;;2.90;2.00;;;;;;;;;;5095583;28;20206;-54
2022/07/16 06:34:55;;;;;;;4.63;2.27;;;;;;;;;;5095390;28;20621;-55
2022/07/16 06:37:21;;;;;;;2.60;1.83;;;;;;;;;;5094453;28;20218;-56
2022/07/16 06:39:47;;;;;;;2.37;1.80;;;;;;;;;;5095417;28;20199;-54
2022/07/16 06:42:13;;;;;;;1.87;1.77;;;;;;;;;;5095324;28;20195;-54
2022/07/16 06:44:40;;;;;;;2.90;1.80;;;;;;;;;;5095224;28;20200;-54
2022/07/16 06:47:07;;;;;;;1.73;1.63;;;;;;;;;;5095163;28;20230;-54
2022/07/16 06:49:33;;;;;;;3.07;1.80;;;;;;;;;;5095321;28;20590;-54
2022/07/16 06:51:59;;;;;;;2.97;1.60;;;;;;;;;;5095051;28;20201;-54
2022/07/16 06:54:25;;;;;;;2.10;1.57;;;;;;;;;;5095151;28;20187;-54
2022/07/16 06:56:51;;;;;;;3.13;1.70;;;;;;;;;;5094925;28;20191;-54
2022/07/16 06:59:17;;;;;;;3.73;1.50;;;;;;;;;;5095097;28;20202;-53
2022/07/16 07:01:43;;;;;;;2.57;1.47;;;;;;;;;;5094963;28;20195;-54
2022/07/16 07:04:11;;;;;;;2.17;1.50;;;;;;;;;;5095102;28;20199;-53
2022/07/16 07:06:37;;;;;;;3.73;1.37;;;;;;;;;;5094736;28;20224;-54
2022/07/16 07:09:03;;;;;;;4.23;1.80;;;;;;;;;;5093724;28;20209;-53
2022/07/16 07:11:29;;;;;;;1.97;1.57;;;;;;;;;;5094908;28;20185;-53
2022/07/16 07:13:55;;;;;;;1.70;1.17;;;;;;;;;;5094680;28;20913;-53
2022/07/16 07:16:21;;;;;;;2.87;1.50;;;;;;;;;;5094686;28;20278;-54
2022/07/16 07:18:47;;;;;;;4.23;1.70;;;;;;;;;;5094470;28;20282;-54
2022/07/16 07:21:15;;;;;;;3.07;1.53;;;;;;;;;;5094356;28;20264;-53
2022/07/16 07:23:41;;;;;;;4.00;1.67;;;;;;;;;;5094517;28;20208;-54
2022/07/16 07:26:07;;;;;;;4.50;1.70;;;;;;;;;;5094565;28;20220;-54
2022/07/16 07:28:33;;;;;;;2.90;1.50;;;;;;;;;;5094655;28;20612;-54
2022/07/16 07:30:59;;;;;;;1.47;1.30;;;;;;;;;;5094297;28;20227;-54
2022/07/16 07:33:25;;;;;;;3.07;1.53;;;;;;;;;;5094545;28;20215;-54
2022/07/16 07:35:51;;;;;;;2.23;1.50;;;;;;;;;;5094287;28;20201;-55
2022/07/16 07:38:18;;;;;;;4.17;1.53;;;;;;;;;;5094445;28;20287;-54
2022/07/16 07:40:45;;;;;;;3.20;1.40;;;;;;;;;;5094255;28;20212;-53
2022/07/16 07:43:11;;;;;;;2.57;1.53;;;;;;;;;;5094321;28;20231;-53
2022/07/16 07:45:37;;;;;;;3.87;1.30;;;;;;;;;;5093706;28;20613;-53
2022/07/16 07:48:03;;;;;;;4.13;1.53;;;;;;;;;;5094029;28;20226;-54
2022/07/16 07:50:29;;;;;;;3.00;1.30;;;;;;;;;;5093926;28;20203;-54
2022/07/16 07:52:55;;;;;;;2.00;1.20;;;;;;;;;;5093970;28;20198;-51
2022/07/16 07:55:22;;;;;;;2.27;1.50;;;;;;;;;;5093887;28;20669;-50
2022/07/16 07:57:48;;;;;;;4.23;1.40;;;;;;;;;;5093881;28;20214;-51
2022/07/16 08:00:15;;;;;;;4.40;1.40;;;;;;;;;;5092766;28;20303;-51
2022/07/16 08:02:42;;;;;;;3.40;1.60;;;;;;;;;;5093427;28;20268;-53
2022/07/16 08:05:09;;;;;;;2.40;1.30;;;;;;;;;;5093378;28;20206;-54
2022/07/16 08:07:35;;;;;;;5.37;1.80;;;;;;;;;;5093656;28;20257;-52
2022/07/16 08:10:01;;;;;;;5.33;1.60;;;;;;;;;;5093651;28;20231;-53
2022/07/16 08:12:28;;;;;;;3.57;1.50;;;;;;;;;;5093666;28;20203;-52
2022/07/16 08:14:54;;;;;;;4.90;2.13;;;;;;;;;;5093357;28;20328;-51
2022/07/16 08:17:20;;;;;;;3.20;1.57;;;;;;;;;;5093526;28;20548;-52
2022/07/16 08:19:46;;;;;;;7.30;1.67;;;;;;;;;;5093227;28;20194;-54
2022/07/16 08:22:12;;;;;;;5.00;1.67;;;;;;;;;;5093279;28;20594;-54
2022/07/16 08:27:23;;;;;;;3.00;1.30;;;;;;;;;;5093270;28;20229;-54
2022/07/16 08:29:50;;;;;;;5.67;1.60;;;;;;;;;;5093375;28;20199;-53
2022/07/16 08:32:16;;;;;;;3.17;1.70;;;;;;;;;;5093125;28;20719;-53
2022/07/16 08:34:42;;;;;;;4.77;1.60;;;;;;;;;;5093020;28;20203;-52
2022/07/16 08:37:09;;;;;;;3.87;1.50;;;;;;;;;;5093277;28;20722;-53
2022/07/16 08:39:38;;;;;;;4.93;1.67;;;;;;;;;;5093248;28;20641;-52
2022/07/16 08:42:04;;;;;;;5.07;1.93;;;;;;;;;;5093173;28;20602;-52
2022/07/16 08:44:30;;;;;;;4.70;1.50;;;;;;;;;;5093177;28;20202;-53
2022/07/16 08:46:58;;;;;;;4.37;1.53;;;;;;;;;;5092921;28;20250;-52
2022/07/16 08:49:24;;;;;;;5.90;1.60;;;;;;;;;;5093097;28;20248;-52
2022/07/16 08:51:52;;;;;;;5.50;1.67;;;;;;;;;;5093000;28;20240;-52
2022/07/16 08:54:19;;;;;;;3.13;1.63;;;;;;;;;;5093124;28;20222;-52
2022/07/16 08:56:45;;;;;;;2.67;1.60;;;;;;;;;;5092897;28;20214;-52
2022/07/16 08:59:11;;;;;;;3.70;1.60;;;;;;;;;;5092730;28;20199;-52
2022/07/16 09:01:38;;;;;;;3.40;1.40;;;;;;;;;;5092889;28;20188;-53
2022/07/16 09:04:05;;;;;;;3.47;1.20;;;;;;;;;;5092887;28;20672;-53
2022/07/16 09:06:32;;;;;;;3.40;1.50;;;;;;;;;;5092729;28;20309;-52
2022/07/16 09:08:58;;;;;;;3.90;1.37;;;;;;;;;;5092584;28;20206;-53
2022/07/16 09:11:25;;;;;;;2.53;1.43;;;;;;;;;;5092301;28;20199;-52
2022/07/16 09:14:01;;;;;;;4.23;1.50;;;;;;;;;;5090588;28;20202;-52
2022/07/16 09:16:28;;;;;;;5.23;1.60;;;;;;;;;;5092523;28;20652;-53
2022/07/16 09:19:14;;;;;;;3.23;1.37;;;;;;;;;;5092417;28;20771;-53
2022/07/16 09:21:55;;;;;;;5.37;1.97;;;;;;;;;;5088808;28;20253;-52
2022/07/16 09:24:30;;;;;;;5.37;1.20;;;;;;;;;;5090838;28;20203;-52
2022/07/16 09:27:00;;;;;;;4.60;1.50;;;;;;;;;;5092023;28;20219;-52
2022/07/16 09:29:26;;;;;;;4.50;1.27;;;;;;;;;;5092276;28;20195;-53
2022/07/16 09:31:54;;;;;;;3.83;1.30;;;;;;;;;;5091529;28;20198;-52
2022/07/16 09:34:21;;;;;;;2.60;1.20;;;;;;;;;;5090330;28;20236;-52
2022/07/16 09:36:55;;;;;;;3.13;2.37;;;;;;;;;;5092221;28;20287;-52
2022/07/16 09:39:21;;;;;;;2.43;1.13;;;;;;;;;;5092056;28;20227;-52
2022/07/16 09:41:47;;;;;;;5.30;1.50;;;;;;;;;;5092180;28;20245;-52
2022/07/16 09:44:15;;;;;;;4.10;1.40;;;;;;;;;;5092137;28;20206;-52
2022/07/16 09:46:56;;;;;;;2.77;1.27;;;;;;;;;;5091868;28;20230;-54
2022/07/16 09:49:23;;;;;;;4.23;1.33;;;;;;;;;;5092007;28;20598;-53
2022/07/16 09:51:49;;;;;;;4.87;1.40;;;;;;;;;;5091984;28;20195;-53
2022/07/16 09:54:26;;;;;;;2.93;1.43;;;;;;;;;;5092160;28;20207;-52
2022/07/16 09:57:04;;;;;;;2.37;1.70;;;;;;;;;;5089133;28;20205;-52
2022/07/16 09:59:30;;;;;;;4.27;1.00;;;;;;;;;;5091230;28;20221;-53
2022/07/16 10:01:56;;;;;;;4.47;1.77;;;;;;;;;;5091621;28;20201;-53
2022/07/16 10:04:23;;;;;;;6.23;1.60;;;;;;;;;;5091333;28;20698;-53
2022/07/16 10:06:50;;;;;;;5.97;1.73;;;;;;;;;;5091627;28;20707;-54
2022/07/16 10:09:16;;;;;;;7.20;2.53;;;;;;;;;;5091665;28;20212;-52
2022/07/16 10:11:42;;;;;;;6.97;1.80;;;;;;;;;;5091874;28;20204;-53
2022/07/16 10:14:08;;;;;;;5.73;1.50;;;;;;;;;;5091474;28;20201;-53
2022/07/16 10:16:37;;;;;;;3.63;1.80;;;;;;;;;;5087851;28;20188;-51
2022/07/16 10:19:04;;;;;;;5.70;2.07;;;;;;;;;;5091431;28;20220;-51
2022/07/16 10:21:31;;;;;;;5.33;2.20;;;;;;;;;;5091446;28;20612;-52
2022/07/16 10:24:04;;;;;;;3.50;1.50;;;;;;;;;;5091734;28;20209;-52
2022/07/16 10:26:32;;;;;;;4.23;1.40;;;;;;;;;;5091583;28;20578;-54
2022/07/16 10:28:58;;;;;;;3.33;1.40;;;;;;;;;;5091580;28;20660;-52
2022/07/16 10:31:31;;;;;;;4.23;1.60;;;;;;;;;;5088533;28;20205;-52
2022/07/16 10:34:27;;;;;;;1.97;1.10;;;;;;;;;;5090826;28;20217;-54
2022/07/16 10:36:55;;;;;;;3.03;1.40;;;;;;;;;;5090238;28;20320;-54
2022/07/16 10:39:21;;;;;;;2.93;1.40;;;;;;;;;;5091222;28;20210;-54
2022/07/16 10:41:48;;;;;;;2.37;1.20;;;;;;;;;;5091053;28;20277;-53
2022/07/16 10:44:14;;;;;;;3.77;1.40;;;;;;;;;;5093929;28;20248;-53
2022/07/16 10:46:51;;;;;;;5.00;1.17;;;;;;;;;;5094819;28;20237;-54
2022/07/16 10:49:17;;;;;;;6.30;1.40;;;;;;;;;;5095303;28;20234;-54
2022/07/16 10:52:00;;;;;;;3.10;1.00;;;;;;;;;;5094343;28;20284;-53
2022/07/16 10:54:27;;;;;;;3.43;1.30;;;;;;;;;;5095098;28;20217;-53
2022/07/16 10:56:54;;;;;;;3.93;1.10;;;;;;;;;;5094563;28;20202;-53
2022/07/16 10:59:21;;;;;;;4.57;1.33;;;;;;;;;;5094419;28;20231;-53
2022/07/16 11:01:48;;;;;;;5.33;1.40;;;;;;;;;;5094440;28;20199;-54
2022/07/16 11:04:14;;;;;;;4.47;1.63;;;;;;;;;;5094927;28;20206;-54
2022/07/16 11:06:41;;;;;;;4.27;1.40;;;;;;;;;;5094820;28;20217;-55
2022/07/16 11:09:09;;;;;;;5.70;1.57;;;;;;;;;;5094879;28;20602;-54
2022/07/16 11:11:35;;;;;;;3.23;1.40;;;;;;;;;;5094490;28;20262;-54
2022/07/16 11:14:02;;;;;;;2.53;1.30;;;;;;;;;;5094583;28;20236;-54
2022/07/16 11:16:28;;;;;;;3.70;2.83;;;;;;;;;;5094813;28;20186;-54
2022/07/16 11:18:54;;;;;;;6.60;1.33;;;;;;;;;;5094796;28;20200;-54
2022/07/16 11:21:20;;;;;;;4.07;1.30;;;;;;;;;;5094560;28;20276;-53
2022/07/16 11:23:47;;;;;;;2.27;1.17;;;;;;;;;;5094222;28;20375;-54
2022/07/16 11:26:15;;;;;;;3.70;1.90;;;;;;;;;;5091000;28;20740;-54
2022/07/16 11:28:50;;;;;;;3.57;1.30;;;;;;;;;;5094025;28;20196;-53
2022/07/16 11:31:23;;;;;;;2.20;1.37;;;;;;;;;;5094536;28;20662;-53
2022/07/16 11:33:49;;;;;;;4.97;1.40;;;;;;;;;;5093554;28;20728;-54
2022/07/16 11:36:15;;;;;;;3.10;1.10;;;;;;;;;;5094195;28;20197;-54
2022/07/16 11:38:41;;;;;;;3.40;1.10;;;;;;;;;;5094354;28;20200;-53
2022/07/16 11:41:07;;;;;;;8.27;5.93;;;;;;;;;;5094121;28;20224;-54
2022/07/16 11:43:36;;;;;;;5.77;1.60;;;;;;;;;;5093951;28;20202;-54
2022/07/16 11:46:02;;;;;;;3.53;1.40;;;;;;;;;;5093536;28;20291;-54
2022/07/16 11:48:35;;;;;;;5.33;1.60;;;;;;;;;;5093695;28;20329;-54
2022/07/16 11:51:06;;;;;;;4.43;1.33;;;;;;;;;;5093408;28;20206;-54
2022/07/16 11:53:33;;;;;;;3.77;1.30;;;;;;;;;;5093576;28;20198;-54
2022/07/16 11:56:00;;;;;;;5.50;1.50;;;;;;;;;;5093564;28;20233;-59
2022/07/16 11:58:26;;;;;;;2.33;1.00;;;;;;;;;;5093574;28;20187;-54
2022/07/16 12:00:53;;;;;;;7.33;1.30;;;;;;;;;;5093510;28;20272;-54
2022/07/16 12:03:19;;;;;;;3.50;1.40;;;;;;;;;;5093671;28;20225;-53
2022/07/16 12:05:45;;;;;;;3.27;1.40;;;;;;;;;;5093368;28;20206;-53
2022/07/16 12:08:12;;;;;;;3.13;1.40;;;;;;;;;;5093357;28;20584;-53
2022/07/16 12:10:38;;;;;;;3.87;1.43;;;;;;;;;;5093296;28;20215;-53
2022/07/16 12:13:05;;;;;;;3.17;1.30;;;;;;;;;;5093228;28;20247;-53
2022/07/16 12:15:50;;;;;;;3.30;1.10;;;;;;;;;;5093313;28;20683;-54
2022/07/16 12:18:18;;;;;;;3.03;1.23;;;;;;;;;;5093509;28;20217;-53
2022/07/16 12:20:44;;;;;;;4.00;1.33;;;;;;;;;;5092854;28;20249;-55
2022/07/16 12:23:11;;;;;;;1.87;1.13;;;;;;;;;;5092966;28;20242;-54
2022/07/16 12:25:37;;;;;;;3.70;1.13;;;;;;;;;;5092912;28;20612;-54
2022/07/16 12:28:05;;;;;;;2.77;1.40;;;;;;;;;;5092787;28;20319;-54
2022/07/16 12:30:32;;;;;;;3.00;1.17;;;;;;;;;;5092866;28;20205;-53
2022/07/16 12:32:59;;;;;;;2.40;1.10;;;;;;;;;;5092634;28;20198;-53
2022/07/16 12:35:44;;;;;;;4.47;1.40;;;;;;;;;;5092705;28;20251;-53
2022/07/16 12:38:30;;;;;;;2.80;1.27;;;;;;;;;;5092629;28;20210;-53
2022/07/16 12:40:56;;;;;;;2.03;1.10;;;;;;;;;;5092232;28;20228;-53
2022/07/16 12:43:22;;;;;;;2.63;1.37;;;;;;;;;;5092251;28;20239;-54
2022/07/16 12:45:48;;;;;;;6.70;1.57;;;;;;;;;;5092432;28;20196;-54
2022/07/16 12:48:13;;;;;;;2.33;1.00;;;;;;;;;;5092681;28;20673;-54
2022/07/16 12:50:40;;;;;;;3.67;1.03;;;;;;;;;;5092682;28;20217;-54
2022/07/16 12:53:07;;;;;;;3.43;1.07;;;;;;;;;;5092347;28;20207;-54
2022/07/16 13:01:03;;;;;;;3.80;1.10;;;;;;;;;;5092406;28;20218;-54
2022/07/16 13:03:29;;;;;;;2.37;1.23;;;;;;;;;;5092537;28;20199;-53
2022/07/16 13:05:55;;;;;;;2.53;1.20;;;;;;;;;;5091663;28;20719;-54
2022/07/16 13:08:22;;;;;;;3.03;1.13;;;;;;;;;;5092262;28;20709;-53
2022/07/16 13:10:48;;;;;;;6.00;1.60;;;;;;;;;;5092463;28;20225;-53
2022/07/16 13:13:14;;;;;;;5.20;1.60;;;;;;;;;;5092223;28;20664;-54
2022/07/16 13:15:40;;;;;;;3.13;1.33;;;;;;;;;;5092369;28;20615;-54
2022/07/16 13:18:06;;;;;;;8.40;1.70;;;;;;;;;;5091927;28;20675;-53
2022/07/16 13:20:32;;;;;;;2.80;1.27;;;;;;;;;;5092503;28;20262;-54
2022/07/16 13:22:58;;;;;;;4.07;1.30;;;;;;;;;;5092258;28;20234;-53
2022/07/16 13:25:25;;;;;;;10.20;1.77;;;;;;;;;;5092227;28;20256;-53
2022/07/16 13:27:51;;;;;;;3.33;1.50;;;;;;;;;;5091895;28;20735;-54
2022/07/16 13:30:17;;;;;;;4.53;1.60;;;;;;;;;;5092406;28;20202;-54
2022/07/16 13:32:43;;;;;;;4.40;1.60;;;;;;;;;;5092234;28;20199;-53
2022/07/16 13:35:09;;;;;;;4.70;1.40;;;;;;;;;;5092003;28;20271;-54
2022/07/16 13:37:35;;;;;;;3.77;1.40;;;;;;;;;;5092069;28;20190;-54
2022/07/16 13:40:02;;;;;;;5.33;1.40;;;;;;;;;;5091733;28;20194;-54
2022/07/16 13:42:30;;;;;;;3.90;1.53;;;;;;;;;;5091848;28;20276;-54
2022/07/16 13:44:56;;;;;;;3.77;1.47;;;;;;;;;;5091815;28;20198;-54
2022/07/16 13:47:22;;;;;;;3.73;1.57;;;;;;;;;;5091726;28;20288;-55
2022/07/16 13:49:48;;;;;;;3.97;1.40;;;;;;;;;;5091598;28;20229;-54
2022/07/16 13:52:14;;;;;;;5.10;2.03;;;;;;;;;;5091624;28;20660;-54
2022/07/16 13:54:40;;;;;;;4.70;1.33;;;;;;;;;;5091784;28;20243;-55
2022/07/16 13:59:52;;;;;;;2.87;1.20;;;;;;;;;;5091557;28;20594;-54
2022/07/16 14:02:18;;;;;;;4.47;1.27;;;;;;;;;;5090258;28;20730;-54
2022/07/16 14:04:44;;;;;;;4.07;1.50;;;;;;;;;;5091679;28;20201;-53
2022/07/16 14:07:10;;;;;;;3.50;1.43;;;;;;;;;;5085658;28;20240;-54
2022/07/16 14:09:37;;;;;;;3.20;1.30;;;;;;;;;;5081079;28;20675;-54
2022/07/16 14:12:03;;;;;;;2.27;1.40;;;;;;;;;;5079154;28;20201;-54
2022/07/16 14:14:29;;;;;;;5.70;1.77;;;;;;;;;;5079728;28;20206;-54
2022/07/16 14:16:56;;;;;;;4.07;1.90;;;;;;;;;;5081305;28;20205;-54
2022/07/16 14:19:22;;;;;;;4.33;1.40;;;;;;;;;;5074110;28;20213;-54
2022/07/16 14:21:48;;;;;;;5.53;1.33;;;;;;;;;;5073804;28;20231;-54
2022/07/16 14:24:14;;;;;;;3.77;1.40;;;;;;;;;;5073862;28;20669;-54
2022/07/16 14:26:43;;;;;;;5.80;1.40;;;;;;;;;;5073725;28;20197;-54
2022/07/16 14:29:09;;;;;;;3.60;1.50;;;;;;;;;;5073546;28;20195;-53
2022/07/16 14:31:35;;;;;;;4.00;1.50;;;;;;;;;;5073872;28;20256;-55
2022/07/16 14:34:02;;;;;;;6.30;1.30;;;;;;;;;;5073380;28;20190;-53
2022/07/16 14:36:28;;;;;;;4.03;1.50;;;;;;;;;;5073678;28;20196;-54
2022/07/16 14:38:54;;;;;;;4.63;1.27;;;;;;;;;;5073452;28;20218;-53
2022/07/16 14:41:20;;;;;;;3.07;1.30;;;;;;;;;;5073663;28;20278;-53
2022/07/16 14:43:46;;;;;;;3.83;1.53;;;;;;;;;;5073534;28;20222;-54
2022/07/16 14:46:13;;;;;;;5.10;3.17;;;;;;;;;;5073164;28;20657;-53
2022/07/16 14:48:39;;;;;;;5.03;2.47;;;;;;;;;;5073871;28;20222;-54
2022/07/16 14:51:06;;;;;;;4.10;1.37;;;;;;;;;;5073743;28;20215;-54
2022/07/16 14:53:32;;;;;;;3.80;1.23;;;;;;;;;;5074786;28;20210;-53
2022/07/16 14:55:58;;;;;;;3.37;1.07;;;;;;;;;;5072454;28;20730;-54
2022/07/16 14:58:25;;;;;;;4.93;1.50;;;;;;;;;;5073115;28;20203;-54
2022/07/16 15:00:51;;;;;;;2.43;1.40;;;;;;;;;;5073337;28;20719;-54